Unionville, Iowa
Current Conditions -  °F | °C
As of 3:50 AM on Sunday 23 Nov 2014 (Local Time) from KTVK Reporting Station
Overcast Overcast  
Wind Chill: 52°   Ceiling: 400
Heat Index: 52°   Visibility: 10mi
Dew Point: 52°   Wind: 8mph
Humidity: 100%   Direction: 170°S
Pressure: 29.63"   Gusts: 16mph
Location:  40.82°N, 92.7°W
Report Text: KTVK 230950Z AUTO 17007G14KT 10SM OVC004 11/11 A2963 RMK AO2
Loading
Personal Weather Stations






























Interactive Weather Map New forecast layout! Learn more

10-Day Weather Forecast

Advertisements
Track Severe Weather on mobile